Time;durP1;ratioP1;P1;durP2;ratioP2;P2;SDS_P1;SDS_P2;PMS_P1;PMS_P2;Temp;Humidity;BMP_temperature;BMP_pressure;BME280_temperature;BME280_humidity;BME280_pressure;Samples;Min_cycle;Max_cycle;Signal;HPM_P1;HPM_P2
2023/05/22 00:01:29;;;;;;;;;;;;;;;21.99;61.44;101139.36;2355640;75;49921;-78
2023/05/22 00:04:31;;;;;;;;;;;;;;;21.99;61.77;101136.17;2330052;75;52375;-77
2023/05/22 00:07:32;;;;;;;;;;;;;;;21.99;61.90;101142.05;2356567;75;50196;-78
2023/05/22 00:10:34;;;;;;;;;;;;;;;22.00;62.02;101137.00;2356863;75;50619;-77
2023/05/22 00:13:35;;;;;;;;;;;;;;;21.99;61.70;101137.52;2355037;75;51317;-77
2023/05/22 00:16:37;;;;;;;;;;;;;;;21.98;61.78;101131.79;2387369;74;51723;-77
2023/05/22 00:19:39;;;;;;;;;;;;;;;21.99;61.83;101127.23;2354853;74;51373;-76
2023/05/22 00:22:41;;;;;;;;;;;;;;;21.99;61.61;101130.78;2356225;75;51498;-76
2023/05/22 00:25:42;;;;;;;;;;;;;;;22.01;61.49;101131.92;2355955;74;50416;-77
2023/05/22 00:28:44;;;;;;;;;;;;;;;21.98;61.58;101132.31;2309176;75;51668;-77
2023/05/22 00:31:45;;;;;;;;;;;;;;;22.00;61.71;101126.22;2355827;75;51427;-76
2023/05/22 00:34:47;;;;;;;;;;;;;;;21.99;61.78;101121.84;2354222;75;51554;-77
2023/05/22 00:37:49;;;;;;;;;;;;;;;21.99;61.53;101114.61;2355806;75;51591;-78
2023/05/22 00:40:51;;;;;;;;;;;;;;;22.01;61.57;101111.70;2327301;75;49809;-78
2023/05/22 00:43:52;;;;;;;;;;;;;;;21.99;61.63;101113.75;2356666;74;50640;-78
2023/05/22 00:46:54;;;;;;;;;;;;;;;22.00;61.46;101110.05;2341816;75;49790;-77
2023/05/22 00:49:56;;;;;;;;;;;;;;;21.99;61.53;101109.22;2353374;74;52321;-77
2023/05/22 00:52:58;;;;;;;;;;;;;;;21.97;61.56;101107.23;2319600;75;49594;-77
2023/05/22 00:55:59;;;;;;;;;;;;;;;21.99;61.53;101110.58;2354449;75;50387;-78
2023/05/22 00:59:01;;;;;;;;;;;;;;;21.98;61.37;101104.84;2355276;74;51466;-77
2023/05/22 01:02:03;;;;;;;;;;;;;;;22.00;61.28;101108.70;2354521;75;50256;-78
2023/05/22 01:05:05;;;;;;;;;;;;;;;21.99;61.25;101101.63;2380040;74;52320;-77
2023/05/22 01:08:07;;;;;;;;;;;;;;;22.00;61.12;101111.41;2355842;75;50286;-78
2023/05/22 01:11:16;;;;;;;;;;;;;;;21.98;61.29;101098.63;2354705;75;51429;-77
2023/05/22 01:14:20;;;;;;;;;;;;;;;21.98;61.20;101099.98;2354496;75;50686;-76
2023/05/22 01:17:45;;;;;;;;;;;;;;;21.96;61.21;101108.23;2328200;75;51711;-77
2023/05/22 01:21:03;;;;;;;;;;;;;;;21.96;61.04;101102.36;2356694;75;22537;-76
2023/05/22 01:24:25;;;;;;;;;;;;;;;21.96;60.91;101103.71;2349284;75;50716;-77
2023/05/22 01:27:41;;;;;;;;;;;;;;;21.97;61.08;101104.54;2355102;75;50387;-77
2023/05/22 01:30:44;;;;;;;;;;;;;;;21.96;61.37;101094.77;2328339;75;51032;-77
2023/05/22 01:33:47;;;;;;;;;;;;;;;21.97;61.31;101095.11;2355597;75;51488;-77
2023/05/22 01:36:49;;;;;;;;;;;;;;;21.96;61.12;101088.89;2358492;75;50673;-78
2023/05/22 01:39:51;;;;;;;;;;;;;;;21.95;61.29;101089.08;2355757;75;51655;-77
2023/05/22 01:42:52;;;;;;;;;;;;;;;21.96;60.98;101093.42;2329787;75;51671;-79
2023/05/22 01:45:54;;;;;;;;;;;;;;;21.95;61.10;101097.98;2355424;75;52154;-78
2023/05/22 01:48:56;;;;;;;;;;;;;;;21.95;61.18;101093.11;2359794;75;51585;-78
2023/05/22 01:51:58;;;;;;;;;;;;;;;21.94;61.13;101096.85;2361012;74;50649;-79
2023/05/22 01:55:02;;;;;;;;;;;;;;;21.95;61.15;101088.55;2331874;75;49565;-79
2023/05/22 01:58:11;;;;;;;;;;;;;;;21.95;61.13;101091.77;2363757;75;50338;-79
2023/05/22 02:01:13;;;;;;;;;;;;;;;21.93;61.08;101089.78;2364257;74;51511;-79
2023/05/22 02:04:15;;;;;;;;;;;;;;;21.93;61.02;101086.56;2367764;74;50658;-79
2023/05/22 02:07:16;;;;;;;;;;;;;;;21.93;61.12;101088.43;2363763;74;50666;-79
2023/05/22 02:10:18;;;;;;;;;;;;;;;21.93;60.58;101087.91;2363133;74;50275;-77
2023/05/22 02:13:20;;;;;;;;;;;;;;;21.93;61.06;101091.95;2362801;75;50282;-78
2023/05/22 02:16:21;;;;;;;;;;;;;;;21.94;60.63;101091.46;2362626;74;50670;-78
2023/05/22 02:19:23;;;;;;;;;;;;;;;21.93;60.78;101093.30;2327724;75;50899;-78
2023/05/22 02:22:25;;;;;;;;;;;;;;;21.92;60.83;101086.25;2344292;74;50013;-78
2023/05/22 02:25:27;;;;;;;;;;;;;;;21.92;60.60;101086.25;2356770;75;50421;-79
2023/05/22 02:28:28;;;;;;;;;;;;;;;21.91;60.78;101091.34;2354754;75;51431;-78
2023/05/22 02:31:30;;;;;;;;;;;;;;;21.93;60.38;101084.39;2387925;74;52334;-78
2023/05/22 02:34:32;;;;;;;;;;;;;;;21.94;60.30;101092.81;2354967;75;51523;-78
2023/05/22 02:37:33;;;;;;;;;;;;;;;21.94;60.17;101091.46;2354908;75;51508;-78
2023/05/22 02:40:35;;;;;;;;;;;;;;;21.93;60.09;101091.95;2355222;75;50752;-78
2023/05/22 02:43:37;;;;;;;;;;;;;;;21.92;60.40;101094.34;2329064;75;50850;-77
2023/05/22 02:46:38;;;;;;;;;;;;;;;21.93;60.32;101091.13;2356861;74;51513;-78
2023/05/22 02:49:40;;;;;;;;;;;;;;;21.94;60.22;101089.59;2358565;75;50605;-78
2023/05/22 02:52:44;;;;;;;;;;;;;;;21.94;60.15;101089.59;2356568;74;51359;-78
2023/05/22 02:55:45;;;;;;;;;;;;;;;21.94;60.12;101084.72;2329271;75;51169;-79
2023/05/22 02:58:47;;;;;;;;;;;;;;;21.92;60.16;101084.91;2353974;74;52428;-78
2023/05/22 03:01:49;;;;;;;;;;;;;;;21.90;60.23;101088.30;2379626;74;50126;-78
2023/05/22 03:04:51;;;;;;;;;;;;;;;21.93;60.08;101089.78;2352193;75;50344;-78
2023/05/22 03:07:52;;;;;;;;;;;;;;;21.94;59.92;101077.47;2325292;75;51270;-77
2023/05/22 03:10:55;;;;;;;;;;;;;;;21.93;59.85;101081.69;2353836;75;50624;-79
2023/05/22 03:13:57;;;;;;;;;;;;;;;21.93;59.75;101075.78;2352228;75;51519;-77
2023/05/22 03:16:58;;;;;;;;;;;;;;;21.95;59.63;101072.39;2352096;75;51597;-79
2023/05/22 03:20:00;;;;;;;;;;;;;;;21.93;60.07;101069.57;2379757;74;51626;-78
2023/05/22 03:23:01;;;;;;;;;;;;;;;21.93;59.80;101066.35;2356974;75;51464;-78
2023/05/22 03:26:03;;;;;;;;;;;;;;;21.93;59.67;101065.53;2357199;75;51529;-79
2023/05/22 03:29:05;;;;;;;;;;;;;;;21.92;59.83;101055.79;2356998;75;50610;-78
2023/05/22 03:32:06;;;;;;;;;;;;;;;21.91;59.84;101067.09;2330193;75;52339;-78
2023/05/22 03:35:09;;;;;;;;;;;;;;;21.90;59.83;101064.05;2357354;75;50655;-79
2023/05/22 03:38:10;;;;;;;;;;;;;;;21.89;59.85;101059.70;2355074;75;50839;-80
2023/05/22 03:41:12;;;;;;;;;;;;;;;21.90;59.86;101066.75;2355375;75;50634;-79
2023/05/22 03:44:13;;;;;;;;;;;;;;;21.91;59.75;101067.09;2388027;74;51180;-79
2023/05/22 03:47:15;;;;;;;;;;;;;;;21.88;60.12;101065.28;2357578;75;50273;-78
2023/05/22 03:50:17;;;;;;;;;;;;;;;21.90;59.86;101063.23;2360176;73;51465;-77
2023/05/22 03:53:18;;;;;;;;;;;;;;;21.92;59.59;101063.35;2356566;75;50277;-79
2023/05/22 03:56:20;;;;;;;;;;;;;;;21.92;59.60;101067.91;2327871;75;51001;-78
2023/05/22 03:59:22;;;;;;;;;;;;;;;21.92;59.63;101071.44;2354788;74;50619;-77
2023/05/22 04:02:25;;;;;;;;;;;;;;;21.94;59.42;101061.83;2355357;74;50315;-78
2023/05/22 04:05:26;;;;;;;;;;;;;;;21.92;59.41;101062.01;2356028;75;51496;-77
2023/05/22 04:08:29;;;;;;;;;;;;;;;21.92;59.49;101054.45;2329320;75;50930;-78
2023/05/22 04:11:31;;;;;;;;;;;;;;;21.90;59.84;101056.49;2354539;75;50657;-78
2023/05/22 04:14:32;;;;;;;;;;;;;;;21.88;59.68;101052.63;2354371;75;50747;-79
2023/05/22 04:17:35;;;;;;;;;;;;;;;21.88;59.81;101055.33;2370777;74;50241;-78
2023/05/22 04:20:37;;;;;;;;;;;;;;;21.89;59.82;101059.70;2332505;75;50547;-79
2023/05/22 04:23:42;;;;;;;;;;;;;;;21.89;59.92;101057.02;2361930;75;50346;-78
2023/05/22 04:26:43;;;;;;;;;;;;;;;21.90;59.90;101057.31;2347243;74;23275;-78
2023/05/22 04:29:45;;;;;;;;;;;;;;;21.92;59.82;101053.92;2360777;75;50342;-78
2023/05/22 04:32:47;;;;;;;;;;;;;;;21.92;59.91;101059.31;2336086;74;51090;-79
2023/05/22 04:35:49;;;;;;;;;;;;;;;21.94;60.03;101055.09;2361168;75;51354;-78
2023/05/22 04:38:51;;;;;;;;;;;;;;;21.94;60.12;101051.05;2359997;74;51504;-79
2023/05/22 04:41:53;;;;;;;;;;;;;;;21.96;60.13;101051.66;2357631;74;50297;-80
2023/05/22 04:44:56;;;;;;;;;;;;;;;21.95;59.98;101056.22;2329097;75;49597;-79
2023/05/22 04:48:01;;;;;;;;;;;;;;;21.99;60.03;101062.56;2362462;75;22506;-75
2023/05/22 04:51:01;;;;;;;;;;;;;;;22.00;60.01;101058.33;2362443;74;22294;-74
2023/05/22 04:54:03;;;;;;;;;;;;;;;21.96;59.99;101060.59;2362113;74;51508;-75
2023/05/22 04:57:04;;;;;;;;;;;;;;;21.98;59.81;101058.21;2326153;75;52489;-75
2023/05/22 05:00:07;;;;;;;;;;;;;;;21.99;59.62;101062.56;2354320;75;50386;-75
2023/05/22 05:03:10;;;;;;;;;;;;;;;22.01;59.50;101057.30;2384835;73;51568;-76
2023/05/22 05:06:12;;;;;;;;;;;;;;;22.01;59.31;101059.16;2398290;73;50839;-78
2023/05/22 05:09:13;;;;;;;;;;;;;;;22.00;59.18;101054.81;2359020;75;49623;-78
2023/05/22 05:12:15;;;;;;;;;;;;;;;22.01;54.58;101051.08;2360202;73;50572;-78
2023/05/22 05:15:17;;;;;;;;;;;;;;;21.92;51.80;101048.53;2367281;75;51500;-78
2023/05/22 05:18:19;;;;;;;;;;;;;;;21.82;50.04;101054.77;2345141;75;49915;-78
2023/05/22 05:21:20;;;;;;;;;;;;;;;21.52;48.55;101050.05;2326132;75;51818;-77
2023/05/22 05:24:22;;;;;;;;;;;;;;;21.63;51.18;101056.28;2350450;75;50411;-77
2023/05/22 05:27:23;;;;;;;;;;;;;;;21.73;52.04;101047.84;2350221;75;50218;-77
2023/05/22 05:30:26;;;;;;;;;;;;;;;21.78;51.72;101048.61;2350654;75;50327;-78
2023/05/22 05:33:28;;;;;;;;;;;;;;;21.82;51.47;101055.30;2350894;75;51527;-78
2023/05/22 05:36:30;;;;;;;;;;;;;;;21.85;51.79;101056.25;2355078;75;50166;-77
2023/05/22 05:39:31;;;;;;;;;;;;;;;21.86;51.95;101055.20;2350719;75;50780;-78
2023/05/22 05:42:33;;;;;;;;;;;;;;;21.86;52.21;101057.41;2350777;75;51450;-78
2023/05/22 05:45:35;;;;;;;;;;;;;;;21.90;52.34;101058.67;2351132;75;51453;-78
2023/05/22 05:48:36;;;;;;;;;;;;;;;21.92;52.58;101067.39;2355284;75;51183;-78
2023/05/22 05:51:38;;;;;;;;;;;;;;;21.99;52.73;101066.11;2355775;75;50271;-77
2023/05/22 05:54:45;;;;;;;;;;;;;;;22.05;52.75;101069.36;2353878;75;50732;-77
2023/05/22 05:57:43;;;;;;;;;;;;;;;22.09;53.76;101072.48;2352384;75;22655;-76
2023/05/22 06:00:44;;;;;;;;;;;;;;;22.19;53.18;101067.61;2327223;75;52370;-77
2023/05/22 06:03:46;;;;;;;;;;;;;;;22.29;52.95;101062.70;2353391;75;51385;-76
2023/05/22 06:06:47;;;;;;;;;;;;;;;22.37;52.70;101065.23;2353395;75;51438;-77
2023/05/22 06:09:49;;;;;;;;;;;;;;;22.38;52.54;101062.05;2353579;75;50320;-76
2023/05/22 06:12:50;;;;;;;;;;;;;;;22.39;52.61;101067.23;2328596;75;51701;-76
2023/05/22 06:15:52;;;;;;;;;;;;;;;22.44;52.51;101067.16;2353452;75;50403;-76
2023/05/22 06:18:56;;;;;;;;;;;;;;;22.42;52.58;101061.95;2352263;74;50027;-77
2023/05/22 06:21:57;;;;;;;;;;;;;;;22.46;52.58;101064.58;2354907;75;50689;-75
2023/05/22 06:24:59;;;;;;;;;;;;;;;22.45;52.69;101061.55;2329937;75;51182;-77
2023/05/22 06:28:00;;;;;;;;;;;;;;;22.50;52.61;101058.27;2357121;75;49889;-77
2023/05/22 06:31:02;;;;;;;;;;;;;;;22.49;52.69;101057.44;2360042;75;50051;-78
2023/05/22 06:34:04;;;;;;;;;;;;;;;22.50;52.71;101057.74;2357477;75;51499;-77
2023/05/22 06:37:06;;;;;;;;;;;;;;;22.54;52.74;101057.67;2388095;74;51041;-77
2023/05/22 06:40:08;;;;;;;;;;;;;;;22.57;52.72;101061.84;2358268;75;51636;-77
2023/05/22 06:43:11;;;;;;;;;;;;;;;22.57;52.84;101053.75;2357620;75;51570;-77
2023/05/22 06:46:12;;;;;;;;;;;;;;;22.60;52.83;101060.08;2360226;74;50127;-77
2023/05/22 06:49:14;;;;;;;;;;;;;;;22.60;52.80;101054.16;2333928;75;51234;-77
2023/05/22 06:52:16;;;;;;;;;;;;;;;22.57;52.84;101057.27;2357521;73;50837;-77
2023/05/22 06:55:17;;;;;;;;;;;;;;;22.56;52.77;101052.09;2357428;74;50380;-77
2023/05/22 06:58:19;;;;;;;;;;;;;;;22.55;52.72;101052.59;2360136;74;51557;-78
2023/05/22 07:01:22;;;;;;;;;;;;;;;22.59;52.72;101054.38;2331813;75;51701;-77
2023/05/22 07:04:23;;;;;;;;;;;;;;;22.63;52.82;101058.33;2357023;75;50205;-77
2023/05/22 07:07:25;;;;;;;;;;;;;;;22.67;52.84;101048.81;2356530;75;50705;-76
2023/05/22 07:10:26;;;;;;;;;;;;;;;22.68;52.77;101050.98;2356830;74;51542;-76
2023/05/22 07:13:30;;;;;;;;;;;;;;;22.69;52.75;101051.33;2326579;75;52435;-76
2023/05/22 07:16:31;;;;;;;;;;;;;;;22.70;52.71;101051.63;2351528;74;22395;-76
2023/05/22 07:19:34;;;;;;;;;;;;;;;22.74;52.72;101055.60;2351175;75;50245;-76
2023/05/22 07:22:36;;;;;;;;;;;;;;;22.75;52.67;101056.73;2357555;75;51461;-76
2023/05/22 07:25:37;;;;;;;;;;;;;;;22.74;52.73;101052.38;2354272;75;51541;-76
2023/05/22 07:28:39;;;;;;;;;;;;;;;22.75;52.72;101058.61;2356228;75;50647;-76
2023/05/22 07:31:41;;;;;;;;;;;;;;;22.78;52.60;101052.28;2356506;75;52417;-76
2023/05/22 07:34:43;;;;;;;;;;;;;;;22.78;52.63;101049.58;2354425;75;51556;-76
2023/05/22 07:37:44;;;;;;;;;;;;;;;22.81;52.64;101051.90;2356309;75;50283;-77
2023/05/22 07:40:46;;;;;;;;;;;;;;;22.80;52.65;101055.61;2354522;75;50391;-77
2023/05/22 07:43:48;;;;;;;;;;;;;;;22.79;52.64;101049.09;2354463;75;50347;-78
2023/05/22 07:46:50;;;;;;;;;;;;;;;22.78;52.63;101046.87;2354093;75;50402;-77
2023/05/22 07:49:52;;;;;;;;;;;;;;;22.75;52.65;101049.98;2328535;75;52565;-77
2023/05/22 07:52:53;;;;;;;;;;;;;;;22.79;52.69;101040.47;2353477;74;51528;-78
2023/05/22 07:55:55;;;;;;;;;;;;;;;22.81;52.65;101046.50;2354430;75;51437;-77
2023/05/22 07:58:57;;;;;;;;;;;;;;;22.82;52.64;101044.63;2354078;75;51595;-77
2023/05/22 08:01:59;;;;;;;;;;;;;;;22.83;52.62;101039.54;2329261;75;52595;-77
2023/05/22 08:05:00;;;;;;;;;;;;;;;22.86;52.60;101045.05;2356293;75;50366;-77
2023/05/22 08:08:03;;;;;;;;;;;;;;;22.87;52.52;101046.73;2356171;74;50425;-77
2023/05/22 08:11:05;;;;;;;;;;;;;;;22.86;52.48;101045.05;2328037;75;52755;-77
2023/05/22 08:14:06;;;;;;;;;;;;;;;22.85;52.50;101042.05;2328095;75;50973;-77
2023/05/22 08:17:08;;;;;;;;;;;;;;;22.84;52.52;101045.27;2356083;75;50702;-77
2023/05/22 08:20:10;;;;;;;;;;;;;;;22.87;52.49;101045.38;2354624;75;51466;-77
2023/05/22 08:23:12;;;;;;;;;;;;;;;22.87;52.52;101038.64;2356990;74;50321;-76
2023/05/22 08:26:14;;;;;;;;;;;;;;;22.86;52.52;101043.17;2359706;75;51507;-76
2023/05/22 08:29:15;;;;;;;;;;;;;;;22.88;52.43;101040.29;2354747;75;50695;-76
2023/05/22 08:32:17;;;;;;;;;;;;;;;22.88;52.44;101038.94;2350132;75;50691;-77
2023/05/22 08:35:19;;;;;;;;;;;;;;;22.87;52.44;101029.20;2350110;75;51441;-76
2023/05/22 08:38:21;;;;;;;;;;;;;;;22.88;52.41;101026.27;2350122;75;50256;-77
2023/05/22 08:41:22;;;;;;;;;;;;;;;22.88;52.41;101024.09;2354241;75;51547;-76
2023/05/22 08:44:24;;;;;;;;;;;;;;;22.87;52.42;101024.63;2354795;74;51462;-77
2023/05/22 08:47:27;;;;;;;;;;;;;;;22.88;52.40;101017.35;2350107;75;51528;-77
2023/05/22 08:50:28;;;;;;;;;;;;;;;22.87;52.45;101023.80;2378394;74;51333;-77
2023/05/22 08:53:36;;;;;;;;;;;;;;;22.85;52.44;101015.06;2353620;75;50633;-76
2023/05/22 08:56:38;;;;;;;;;;;;;;;22.86;52.42;101018.06;2355515;75;51642;-77
2023/05/22 08:59:40;;;;;;;;;;;;;;;22.86;52.42;101021.59;2353582;75;50297;-76
2023/05/22 09:02:42;;;;;;;;;;;;;;;22.84;52.42;101008.84;2309195;75;52429;-76
2023/05/22 09:05:44;;;;;;;;;;;;;;;22.85;52.44;101008.32;2353528;75;50260;-77
2023/05/22 09:08:45;;;;;;;;;;;;;;;22.87;52.39;100991.42;2355713;75;51581;-76
2023/05/22 09:11:47;;;;;;;;;;;;;;;22.85;52.42;100999.70;2355769;75;50251;-77
2023/05/22 09:14:49;;;;;;;;;;;;;;;22.85;52.43;100994.83;2385976;74;51087;-77
2023/05/22 09:17:50;;;;;;;;;;;;;;;22.81;52.46;101001.98;2355552;75;51534;-77
2023/05/22 09:20:52;;;;;;;;;;;;;;;22.80;52.52;100997.61;2355738;75;50255;-77
2023/05/22 09:23:54;;;;;;;;;;;;;;;22.81;52.49;100994.38;2317258;75;51119;-76
2023/05/22 09:26:55;;;;;;;;;;;;;;;22.81;52.47;100997.94;2378189;74;51158;-77
2023/05/22 09:29:57;;;;;;;;;;;;;;;22.79;52.55;100991.08;2352994;74;50390;-77
2023/05/22 09:32:58;;;;;;;;;;;;;;;22.77;52.60;100980.48;2353185;75;49935;-77
2023/05/22 09:36:00;;;;;;;;;;;;;;;22.76;52.59;100990.11;2378396;74;51466;-77
2023/05/22 09:39:02;;;;;;;;;;;;;;;22.77;52.56;100983.70;2351475;74;51408;-76
2023/05/22 09:42:04;;;;;;;;;;;;;;;22.76;52.57;100981.53;2352885;75;51648;-76
2023/05/22 09:45:06;;;;;;;;;;;;;;;22.75;52.63;100982.55;2351056;75;50213;-76
2023/05/22 09:48:08;;;;;;;;;;;;;;;22.74;52.62;100983.59;2352734;74;50293;-76
2023/05/22 09:51:10;;;;;;;;;;;;;;;22.73;52.66;100981.91;2337848;75;51246;-76
2023/05/22 09:54:11;;;;;;;;;;;;;;;22.73;52.68;100978.38;2366882;75;50764;-76
2023/05/22 09:57:13;;;;;;;;;;;;;;;22.73;52.71;100974.34;2366773;75;51535;-77
2023/05/22 10:00:18;;;;;;;;;;;;;;;22.72;52.68;100974.86;2366814;75;50643;-77
2023/05/22 10:03:18;;;;;;;;;;;;;;;22.73;52.66;100979.21;2366668;75;22806;-77
2023/05/22 10:06:20;;;;;;;;;;;;;;;22.73;52.71;100972.47;2366191;75;51436;-77
2023/05/22 10:09:23;;;;;;;;;;;;;;;22.71;52.73;100965.61;2366836;74;50281;-77
2023/05/22 10:12:25;;;;;;;;;;;;;;;22.71;52.77;100960.22;2366846;75;50647;-77
2023/05/22 10:15:27;;;;;;;;;;;;;;;22.69;52.73;100968.53;2335714;75;51193;-77
2023/05/22 10:18:28;;;;;;;;;;;;;;;22.70;52.81;100969.36;2341797;75;50392;-77
2023/05/22 10:21:30;;;;;;;;;;;;;;;22.69;52.80;100967.70;2361232;75;50201;-77
2023/05/22 10:24:32;;;;;;;;;;;;;;;22.69;52.78;100963.13;2355766;74;51659;-77
2023/05/22 10:27:34;;;;;;;;;;;;;;;22.69;52.83;100951.52;2387192;74;52463;-77
2023/05/22 10:30:43;;;;;;;;;;;;;;;22.71;52.79;100953.47;2354440;75;50257;-77
2023/05/22 10:33:46;;;;;;;;;;;;;;;22.70;52.73;100955.34;2354066;75;50765;-77
2023/05/22 10:36:50;;;;;;;;;;;;;;;22.70;52.83;100953.17;2354208;75;52158;-77
2023/05/22 10:39:56;;;;;;;;;;;;;;;22.69;52.81;100951.52;2329380;75;51540;-77
2023/05/22 10:43:00;;;;;;;;;;;;;;;22.70;52.74;100950.47;2354525;75;50314;-77
2023/05/22 10:46:02;;;;;;;;;;;;;;;22.69;52.72;100945.60;2354389;75;51456;-77
2023/05/22 10:49:04;;;;;;;;;;;;;;;22.68;52.73;100938.52;2354070;75;50289;-77
2023/05/22 10:52:07;;;;;;;;;;;;;;;22.71;52.65;100939.98;2329098;75;51515;-77
2023/05/22 10:55:09;;;;;;;;;;;;;;;22.69;52.67;100934.81;2355343;75;52477;-77
2023/05/22 10:58:16;;;;;;;;;;;;;;;22.70;52.67;100929.72;2355527;75;50030;-78
2023/05/22 11:01:18;;;;;;;;;;;;;;;22.71;52.68;100923.30;2353175;75;50684;-77
2023/05/22 11:04:19;;;;;;;;;;;;;;;22.70;52.71;100928.89;2355871;75;51516;-78
2023/05/22 11:07:21;;;;;;;;;;;;;;;22.70;52.74;100928.37;2355400;75;51439;-76
2023/05/22 11:10:26;;;;;;;;;;;;;;;22.69;52.65;100922.67;2356020;75;50317;-78
2023/05/22 11:13:28;;;;;;;;;;;;;;;22.68;52.76;100920.16;2353355;75;51582;-77
2023/05/22 11:16:33;;;;;;;;;;;;;;;22.67;52.72;100916.64;2378789;74;52509;-78
2023/05/22 11:19:34;;;;;;;;;;;;;;;22.66;52.80;100905.55;2356281;75;51386;-77
2023/05/22 11:22:42;;;;;;;;;;;;;;;22.66;52.78;100908.73;2353718;75;50225;-78
2023/05/22 11:25:44;;;;;;;;;;;;;;;22.65;52.78;100912.48;2353798;75;51464;-78
2023/05/22 11:28:50;;;;;;;;;;;;;;;22.66;52.75;100910.95;2309277;75;51562;-77
2023/05/22 11:31:52;;;;;;;;;;;;;;;22.67;52.75;100909.90;2355819;75;51555;-77
2023/05/22 11:34:54;;;;;;;;;;;;;;;22.66;52.73;100904.20;2353772;75;51581;-77
2023/05/22 11:37:57;;;;;;;;;;;;;;;22.67;52.72;100906.38;2327233;75;52505;-77
2023/05/22 11:40:59;;;;;;;;;;;;;;;22.67;52.73;100910.42;2327515;75;50134;-77
2023/05/22 11:44:00;;;;;;;;;;;;;;;22.65;52.72;100903.88;2355822;75;50201;-77
2023/05/22 11:47:03;;;;;;;;;;;;;;;22.65;52.65;100901.17;2355597;75;50078;-77
2023/05/22 11:50:05;;;;;;;;;;;;;;;22.66;52.72;100896.11;2355346;75;51543;-77
2023/05/22 11:53:07;;;;;;;;;;;;;;;22.66;52.73;100900.65;2315533;75;49582;-77
2023/05/22 11:56:08;;;;;;;;;;;;;;;22.65;52.64;100898.48;2350862;75;50186;-77
2023/05/22 11:59:10;;;;;;;;;;;;;;;22.64;52.67;100898.17;2352992;74;50268;-77
2023/05/22 12:02:12;;;;;;;;;;;;;;;22.65;52.63;100891.73;2352974;75;50419;-77
2023/05/22 12:05:15;;;;;;;;;;;;;;;22.66;52.59;100888.52;2326120;74;49635;-77
2023/05/22 12:08:16;;;;;;;;;;;;;;;22.66;52.62;100883.12;2352777;74;51544;-76
2023/05/22 12:11:18;;;;;;;;;;;;;;;22.65;52.54;100878.25;2351067;75;51420;-77
2023/05/22 12:14:21;;;;;;;;;;;;;;;22.66;52.48;100877.23;2351002;74;51461;-76
2023/05/22 12:17:23;;;;;;;;;;;;;;;22.67;52.55;100878.88;2350883;74;51654;-77
2023/05/22 12:20:26;;;;;;;;;;;;;;;22.64;52.65;100873.90;2356860;74;50408;-77
2023/05/22 12:23:30;;;;;;;;;;;;;;;22.65;52.76;100872.03;2356241;75;51429;-77
2023/05/22 12:26:31;;;;;;;;;;;;;;;22.64;52.73;100868.50;2354681;74;22503;-76
2023/05/22 12:29:33;;;;;;;;;;;;;;;22.65;52.65;100871.50;2387468;74;51154;-76
2023/05/22 12:32:35;;;;;;;;;;;;;;;22.66;52.67;100862.39;2354618;75;51585;-76
2023/05/22 12:35:37;;;;;;;;;;;;;;;22.68;52.75;100869.73;2356571;75;50356;-76
2023/05/22 12:38:40;;;;;;;;;;;;;;;22.68;52.67;100862.17;2354398;75;50232;-76
2023/05/22 12:41:41;;;;;;;;;;;;;;;22.69;52.67;100864.67;2329644;75;52371;-76
2023/05/22 12:44:45;;;;;;;;;;;;;;;22.69;52.65;100865.20;2356508;75;52202;-77
2023/05/22 12:47:46;;;;;;;;;;;;;;;22.69;52.68;100867.37;2354345;75;50365;-76
2023/05/22 12:50:48;;;;;;;;;;;;;;;22.69;52.62;100856.59;2327911;75;52402;-76
2023/05/22 12:53:50;;;;;;;;;;;;;;;22.67;52.84;100866.74;2328091;75;52319;-76
2023/05/22 12:56:51;;;;;;;;;;;;;;;22.68;52.78;100855.42;2354802;75;50263;-77
2023/05/22 12:59:53;;;;;;;;;;;;;;;22.68;52.71;100853.55;2355003;75;50099;-77
2023/05/22 13:02:54;;;;;;;;;;;;;;;22.68;52.75;100857.60;2350608;75;50277;-77
2023/05/22 13:05:56;;;;;;;;;;;;;;;22.69;52.68;100864.67;2328103;75;52478;-77
2023/05/22 13:08:57;;;;;;;;;;;;;;;22.71;52.59;100853.66;2354646;75;51486;-77
2023/05/22 13:11:59;;;;;;;;;;;;;;;22.70;52.55;100852.84;2350547;75;51464;-77
2023/05/22 13:15:01;;;;;;;;;;;;;;;22.71;52.50;100845.08;2354841;75;51429;-77
2023/05/22 13:18:02;;;;;;;;;;;;;;;22.75;52.39;100843.61;2350079;75;51424;-77
2023/05/22 13:21:05;;;;;;;;;;;;;;;22.77;52.23;100846.94;2356534;75;50027;-77
2023/05/22 13:24:06;;;;;;;;;;;;;;;22.72;52.33;100842.68;2362227;75;51507;-77
2023/05/22 13:27:08;;;;;;;;;;;;;;;22.72;52.26;100842.68;2354730;75;50673;-76
2023/05/22 13:30:10;;;;;;;;;;;;;;;22.73;52.25;100840.28;2387049;74;52548;-76
2023/05/22 13:33:12;;;;;;;;;;;;;;;22.72;52.26;100837.81;2356287;75;50487;-76
2023/05/22 13:36:14;;;;;;;;;;;;;;;22.74;52.35;100835.74;2354028;75;51563;-76
2023/05/22 13:39:15;;;;;;;;;;;;;;;22.75;52.28;100834.17;2354499;75;52193;-77
2023/05/22 13:42:17;;;;;;;;;;;;;;;22.77;52.31;100833.45;2328514;75;52383;-77
2023/05/22 13:45:18;;;;;;;;;;;;;;;22.80;52.25;100826.81;2355123;75;50377;-78
2023/05/22 13:48:20;;;;;;;;;;;;;;;22.82;52.17;100830.97;2356237;75;51636;-76
2023/05/22 13:51:22;;;;;;;;;;;;;;;22.81;52.20;100826.62;2362261;75;50801;-76
2023/05/22 13:54:23;;;;;;;;;;;;;;;22.83;52.27;100819.65;2330768;75;50999;-77
2023/05/22 13:57:25;;;;;;;;;;;;;;;22.86;52.25;100816.53;2362308;75;51501;-77
2023/05/22 14:00:26;;;;;;;;;;;;;;;22.86;52.15;100808.96;2356411;75;50324;-77
2023/05/22 14:03:28;;;;;;;;;;;;;;;22.85;52.19;100809.48;2357660;75;50671;-76
2023/05/22 14:06:30;;;;;;;;;;;;;;;22.86;52.19;100805.73;2330205;75;50836;-77
2023/05/22 14:09:31;;;;;;;;;;;;;;;22.88;52.18;100802.84;2356480;75;50617;-77
2023/05/22 14:12:33;;;;;;;;;;;;;;;22.86;52.19;100794.94;2355376;75;51505;-77
2023/05/22 14:15:34;;;;;;;;;;;;;;;22.88;52.14;100797.45;2356927;74;51420;-77
2023/05/22 14:18:36;;;;;;;;;;;;;;;22.87;52.16;100792.58;2355213;75;51416;-77
2023/05/22 14:21:37;;;;;;;;;;;;;;;22.87;52.24;100793.92;2362311;75;50437;-77
2023/05/22 14:24:39;;;;;;;;;;;;;;;22.87;52.15;100792.58;2357929;75;50004;-77
2023/05/22 14:27:41;;;;;;;;;;;;;;;22.90;52.11;100789.98;2354110;75;50625;-77
2023/05/22 14:30:42;;;;;;;;;;;;;;;22.90;52.10;100796.20;2386141;74;51704;-76
2023/05/22 14:33:44;;;;;;;;;;;;;;;22.91;52.08;100791.62;2355483;75;51665;-77
2023/05/22 14:36:45;;;;;;;;;;;;;;;22.91;52.08;100788.93;2355189;75;50612;-76
2023/05/22 14:39:47;;;;;;;;;;;;;;;22.92;52.07;100783.86;2355209;75;50165;-76
2023/05/22 14:42:49;;;;;;;;;;;;;;;22.93;52.03;100783.64;2327864;75;51145;-76
2023/05/22 14:45:50;;;;;;;;;;;;;;;22.92;52.06;100769.84;2356018;74;50515;-77
2023/05/22 14:48:52;;;;;;;;;;;;;;;22.94;52.06;100773.66;2351900;75;50324;-76
2023/05/22 14:51:54;;;;;;;;;;;;;;;22.95;52.01;100770.77;2353556;75;52486;-76
2023/05/22 14:54:56;;;;;;;;;;;;;;;22.96;51.98;100773.77;2327538;75;50092;-76
2023/05/22 14:57:57;;;;;;;;;;;;;;;22.97;51.97;100767.38;2353329;75;51512;-76
2023/05/22 15:00:59;;;;;;;;;;;;;;;22.98;51.94;100766.33;2353355;75;51417;-76
2023/05/22 15:04:00;;;;;;;;;;;;;;;23.00;51.92;100764.78;2355474;75;51509;-76
2023/05/22 15:07:02;;;;;;;;;;;;;;;22.99;51.92;100767.16;2309368;75;52476;-76
2023/05/22 15:10:04;;;;;;;;;;;;;;;23.01;51.89;100760.51;2355517;75;51417;-75
2023/05/22 15:13:06;;;;;;;;;;;;;;;23.01;51.90;100758.34;2353574;75;50668;-76
2023/05/22 15:16:07;;;;;;;;;;;;;;;23.02;51.90;100751.92;2354788;75;51500;-77
2023/05/22 15:19:09;;;;;;;;;;;;;;;22.99;51.91;100743.72;2328619;75;51406;-75
2023/05/22 15:22:11;;;;;;;;;;;;;;;23.00;51.97;100741.84;2353062;75;50608;-76
2023/05/22 15:25:16;;;;;;;;;;;;;;;23.00;51.94;100737.27;2353249;75;51514;-76
2023/05/22 15:28:15;;;;;;;;;;;;;;;23.01;51.99;100735.40;2350695;74;22391;-76
2023/05/22 15:31:17;;;;;;;;;;;;;;;23.00;52.00;100725.66;2324536;75;52506;-77
2023/05/22 15:34:19;;;;;;;;;;;;;;;23.01;51.99;100720.55;2352741;75;53488;-76